Terminal Aerodrome Forecast
Issued by NWS Charleston, WV

Home | Current Version | Previous Version | Text Only | Print | Product List | Glossary On
Versions: 1 2 3 4 5 6 7 8 9 10 11 12 13 14 15 16 17 18 19 20 21 22 23 24
000
FTUS41 KRLX 301139
TAFPKB
TAF
KPKB 301139Z 3012/3112 21007KT P6SM BKN080
      TEMPO 3013/3015 5SM -SHRA BKN050
     FM301600 22009KT P6SM VCTS BKN035CB
     FM302200 20005KT P6SM BKN040
     FM310200 VRB03KT P6SM SCT050
     FM310500 17004KT P6SM BKN040
     FM310900 19005KT 6SM -SHRA VCTS BKN035CB=

USA.gov is the U.S. government's official web portal to all federal, state and local government web resources and services.